createdAt,value
2022-08-27T00:00:26.998Z,1010.32
2022-08-27T00:01:27.015Z,1010.30
2022-08-27T00:02:27.120Z,1010.34
2022-08-27T00:03:27.085Z,1010.33
2022-08-27T00:04:27.370Z,1010.35
2022-08-27T00:05:27.149Z,1010.35
2022-08-27T00:06:27.165Z,1010.30
2022-08-27T00:07:27.809Z,1010.36
2022-08-27T00:08:27.422Z,1010.37
2022-08-27T00:09:27.400Z,1010.35
2022-08-27T00:10:27.293Z,1010.34
2022-08-27T00:11:27.321Z,1010.38
2022-08-27T00:12:27.352Z,1010.38
2022-08-27T00:13:28.803Z,1010.41
2022-08-27T00:14:27.613Z,1010.40
2022-08-27T00:15:28.446Z,1010.34
2022-08-27T00:16:27.514Z,1010.32
2022-08-27T00:17:27.704Z,1010.33
2022-08-27T00:18:27.530Z,1010.33
2022-08-27T00:19:27.760Z,1010.29
2022-08-27T00:20:27.789Z,1010.26
2022-08-27T00:21:27.627Z,1010.36
2022-08-27T00:26:27.968Z,1010.29
2022-08-27T00:27:27.986Z,1010.31
2022-08-27T00:28:28.538Z,1010.30
2022-08-27T00:29:27.860Z,1010.32
2022-08-27T00:30:28.192Z,1010.29
2022-08-27T00:31:28.033Z,1010.32
2022-08-27T00:32:27.946Z,1010.31
2022-08-27T00:34:28.413Z,1010.38
2022-08-27T00:35:28.235Z,1010.34
2022-08-27T00:36:28.065Z,1010.34
2022-08-27T00:37:28.089Z,1010.32
2022-08-27T00:38:29.541Z,1010.35
2022-08-27T00:39:28.754Z,1010.31
2022-08-27T00:40:28.241Z,1010.33
2022-08-27T00:41:28.210Z,1010.33
2022-08-27T00:42:28.246Z,1010.33
2022-08-27T00:45:28.376Z,1010.34
2022-08-27T00:46:28.366Z,1010.35
2022-08-27T00:52:28.524Z,1010.35
2022-08-27T01:04:29.703Z,1010.32
2022-08-27T01:08:30.220Z,1010.36
2022-08-27T01:12:29.844Z,1010.38
2022-08-27T01:13:54.495Z,1010.39
2022-08-27T01:14:29.597Z,1010.35
2022-08-27T01:27:30.471Z,1010.28
2022-08-27T01:40:30.314Z,1010.19
2022-08-27T01:42:30.421Z,1010.20
2022-08-27T01:53:30.745Z,1010.09
2022-08-27T01:57:31.153Z,1010.07
2022-08-27T02:05:33.223Z,1010.08
2022-08-27T02:13:31.837Z,1010.00
2022-08-27T02:22:32.308Z,1010.00
2022-08-27T02:32:35.414Z,1010.00
2022-08-27T02:38:31.656Z,1010.03
2022-08-27T02:39:32.500Z,1010.03
2022-08-27T02:43:32.414Z,1010.06
2022-08-27T02:44:32.041Z,1010.09
2022-08-27T02:45:31.866Z,1010.04
2022-08-27T02:46:31.920Z,1009.99
2022-08-27T02:48:32.154Z,1010.00
2022-08-27T02:49:31.966Z,1009.97
2022-08-27T02:50:32.215Z,1009.97
2022-08-27T02:51:32.022Z,1010.03
2022-08-27T02:52:34.674Z,1009.97
2022-08-27T02:53:32.094Z,1009.98
2022-08-27T02:54:32.111Z,1009.94
2022-08-27T02:55:32.959Z,1009.96
2022-08-27T03:14:33.002Z,1009.99
2022-08-27T03:32:34.249Z,1010.05
2022-08-27T03:49:35.152Z,1009.98
2022-08-27T04:00:34.461Z,1010.02
2022-08-27T05:17:36.309Z,1010.41
2022-08-27T05:18:43.968Z,1010.42
2022-08-27T05:19:36.368Z,1010.44
2022-08-27T05:20:36.395Z,1010.38
2022-08-27T05:21:36.428Z,1010.42
2022-08-27T05:22:36.455Z,1010.42
2022-08-27T05:23:36.750Z,1010.48
2022-08-27T05:24:36.513Z,1010.46
2022-08-27T05:25:36.547Z,1010.45
2022-08-27T05:26:36.573Z,1010.46
2022-08-27T05:27:36.606Z,1010.40
2022-08-27T05:28:36.632Z,1010.42
2022-08-27T05:29:36.663Z,1010.44
2022-08-27T05:30:36.690Z,1010.43
2022-08-27T05:31:36.827Z,1010.51
2022-08-27T05:32:36.749Z,1010.49
2022-08-27T05:33:36.781Z,1010.50
2022-08-27T05:34:36.812Z,1010.46
2022-08-27T05:35:36.839Z,1010.53
2022-08-27T05:36:36.866Z,1010.51
2022-08-27T05:37:36.897Z,1010.53
2022-08-27T05:38:36.926Z,1010.47
2022-08-27T05:39:36.958Z,1010.50
2022-08-27T05:40:37.074Z,1010.49
2022-08-27T05:41:37.019Z,1010.52
2022-08-27T05:42:37.044Z,1010.53
2022-08-27T05:43:37.071Z,1010.44
2022-08-27T05:44:41.682Z,1010.43
2022-08-27T05:45:37.130Z,1010.44
2022-08-27T05:46:41.297Z,1010.51
2022-08-27T05:47:37.712Z,1010.47
2022-08-27T05:48:38.746Z,1010.52
2022-08-27T05:51:37.314Z,1010.47
2022-08-27T05:52:37.345Z,1010.49
2022-08-27T05:54:37.402Z,1010.46
2022-08-27T05:55:38.042Z,1010.45
2022-08-27T05:56:37.662Z,1010.47
2022-08-27T05:57:37.697Z,1010.44
2022-08-27T05:58:37.717Z,1010.49
2022-08-27T05:59:37.955Z,1010.50
2022-08-27T06:00:37.575Z,1010.51
2022-08-27T06:01:37.808Z,1010.48
2022-08-27T06:02:40.684Z,1010.49
2022-08-27T06:03:37.662Z,1010.51
2022-08-27T06:04:37.994Z,1010.51
2022-08-27T06:05:38.019Z,1010.52
2022-08-27T06:07:37.775Z,1010.53
2022-08-27T06:09:37.839Z,1010.53
2022-08-27T06:10:38.051Z,1010.54
2022-08-27T06:11:37.878Z,1010.54
2022-08-27T06:12:37.905Z,1010.55
2022-08-27T06:13:37.951Z,1010.53
2022-08-27T06:14:37.975Z,1010.54
2022-08-27T06:15:38.066Z,1010.52
2022-08-27T06:16:38.032Z,1010.53
2022-08-27T06:17:38.066Z,1010.52
2022-08-27T06:18:38.494Z,1010.56
2022-08-27T06:20:38.757Z,1010.57
2022-08-27T06:22:38.207Z,1010.56
2022-08-27T06:23:38.440Z,1010.60
2022-08-27T06:24:38.975Z,1010.58
2022-08-27T06:26:20.832Z,1010.59
2022-08-27T06:27:20.863Z,1010.61
2022-08-27T06:28:20.901Z,1010.61
2022-08-27T06:29:20.919Z,1010.58
2022-08-27T06:30:20.957Z,1010.60
2022-08-27T06:31:21.189Z,1010.58
2022-08-27T06:32:21.205Z,1010.61
2022-08-27T06:33:21.034Z,1010.59
2022-08-27T06:34:21.074Z,1010.57
2022-08-27T06:36:21.322Z,1010.60
2022-08-27T06:37:21.161Z,1010.62
2022-08-27T06:38:21.177Z,1010.63
2022-08-27T06:40:21.497Z,1010.60
2022-08-27T06:41:23.586Z,1010.62
2022-08-27T06:42:21.301Z,1010.66
2022-08-27T06:43:25.006Z,1010.65
2022-08-27T06:44:21.359Z,1010.67
2022-08-27T06:45:21.392Z,1010.66
2022-08-27T06:46:22.282Z,1010.69
2022-08-27T06:47:21.458Z,1010.71
2022-08-27T06:48:24.084Z,1010.70
2022-08-27T06:49:23.322Z,1010.70
2022-08-27T06:50:26.707Z,1010.65
2022-08-27T06:51:21.766Z,1010.68
2022-08-27T06:52:21.590Z,1010.74
2022-08-27T06:53:24.491Z,1010.68
2022-08-27T06:54:22.050Z,1010.65
2022-08-27T06:55:21.682Z,1010.65
2022-08-27T06:56:21.910Z,1010.71
2022-08-27T06:58:21.768Z,1010.67
2022-08-27T06:59:21.790Z,1010.71
2022-08-27T07:02:21.940Z,1010.69
2022-08-27T07:03:22.111Z,1010.71
2022-08-27T07:04:21.938Z,1010.69
2022-08-27T07:05:22.165Z,1010.70
2022-08-27T07:06:22.196Z,1010.73
2022-08-27T07:07:31.772Z,1010.64
2022-08-27T07:08:22.055Z,1010.65
2022-08-27T07:11:22.345Z,1010.66
2022-08-27T07:12:22.173Z,1010.64
2022-08-27T07:15:22.259Z,1010.69
2022-08-27T07:16:22.784Z,1010.68
2022-08-27T07:17:22.311Z,1010.66
2022-08-27T07:18:27.261Z,1010.71
2022-08-27T07:19:22.577Z,1010.64
2022-08-27T07:20:22.396Z,1010.67
2022-08-27T07:22:22.454Z,1010.64
2022-08-27T07:23:22.479Z,1010.70
2022-08-27T07:24:22.916Z,1010.69
2022-08-27T07:25:22.762Z,1010.65
2022-08-27T07:26:22.572Z,1010.67
2022-08-27T07:27:22.598Z,1010.68
2022-08-27T07:28:22.936Z,1010.68
2022-08-27T07:29:22.708Z,1010.77
2022-08-27T07:34:22.786Z,1010.75
2022-08-27T07:35:22.818Z,1010.74
2022-08-27T07:36:22.843Z,1010.73
2022-08-27T07:37:22.888Z,1010.72
2022-08-27T07:38:22.917Z,1010.74
2022-08-27T07:39:23.133Z,1010.75
2022-08-27T07:40:23.124Z,1010.74
2022-08-27T07:41:23.190Z,1010.75
2022-08-27T07:42:23.725Z,1010.73
2022-08-27T07:44:25.924Z,1010.75
2022-08-27T07:45:23.115Z,1010.75
2022-08-27T07:46:23.212Z,1010.77
2022-08-27T07:48:23.199Z,1010.79
2022-08-27T07:49:23.229Z,1010.78
2022-08-27T07:50:23.460Z,1010.76
2022-08-27T07:51:23.289Z,1010.77
2022-08-27T07:52:26.393Z,1010.73
2022-08-27T07:54:23.580Z,1010.73
2022-08-27T07:55:23.439Z,1010.73
2022-08-27T07:56:23.434Z,1010.76
2022-08-27T07:57:23.874Z,1010.75
2022-08-27T07:58:23.490Z,1010.78
2022-08-27T07:59:24.237Z,1010.79
2022-08-27T08:00:23.752Z,1010.76
2022-08-27T08:01:24.551Z,1010.81
2022-08-27T08:02:23.631Z,1010.84
2022-08-27T08:03:23.840Z,1010.83
2022-08-27T08:04:23.666Z,1010.85
2022-08-27T08:05:23.892Z,1010.83
2022-08-27T08:06:23.765Z,1010.88
2022-08-27T08:07:24.259Z,1010.84
2022-08-27T08:08:23.994Z,1010.84
2022-08-27T08:09:24.010Z,1010.88
2022-08-27T08:10:24.448Z,1010.86
2022-08-27T08:11:23.873Z,1010.83
2022-08-27T08:12:26.605Z,1010.86
2022-08-27T08:13:24.133Z,1010.85
2022-08-27T08:14:24.161Z,1010.88
2022-08-27T08:15:24.387Z,1010.81
2022-08-27T08:16:27.202Z,1010.87
2022-08-27T08:17:24.145Z,1010.86
2022-08-27T08:18:24.068Z,1010.90
2022-08-27T08:19:24.607Z,1010.87
2022-08-27T08:20:41.515Z,1010.87
2022-08-27T08:21:24.464Z,1010.89
2022-08-27T08:22:25.602Z,1010.97
2022-08-27T08:23:24.725Z,1010.97
2022-08-27T08:24:24.445Z,1010.97
2022-08-27T08:26:24.299Z,1010.98
2022-08-27T08:28:24.360Z,1011.00
2022-08-27T08:30:24.415Z,1011.00
2022-08-27T08:31:24.623Z,1011.00
2022-08-27T08:32:24.473Z,1011.04
2022-08-27T08:33:24.504Z,1010.98
2022-08-27T08:36:24.703Z,1011.00
2022-08-27T08:38:24.981Z,1011.00
2022-08-27T08:39:25.406Z,1011.03
2022-08-27T08:41:24.856Z,1011.03
2022-08-27T08:42:25.589Z,1011.01
2022-08-27T08:43:24.920Z,1011.05
2022-08-27T08:44:25.759Z,1011.00
2022-08-27T08:45:25.179Z,1011.00
2022-08-27T08:48:25.065Z,1010.99
2022-08-27T08:50:25.325Z,1011.05
2022-08-27T08:51:25.145Z,1011.04
2022-08-27T08:52:31.608Z,1011.06
2022-08-27T08:53:25.200Z,1011.04
2022-08-27T08:54:25.231Z,1011.06
2022-08-27T08:55:25.256Z,1011.08
2022-08-27T09:04:26.241Z,1011.17
2022-08-27T09:13:26.109Z,1011.23
2022-08-27T09:16:26.395Z,1011.28
2022-08-27T09:17:26.521Z,1011.28
2022-08-27T09:18:28.145Z,1011.25
2022-08-27T09:22:26.065Z,1011.26
2022-08-27T09:23:26.503Z,1011.27
2022-08-27T09:34:26.420Z,1011.24
2022-08-27T09:35:26.652Z,1011.21
2022-08-27T09:40:26.834Z,1011.25
2022-08-27T09:44:27.021Z,1011.30
2022-08-27T09:47:27.004Z,1011.29
2022-08-27T09:48:26.837Z,1011.35
2022-08-27T09:49:26.862Z,1011.27
2022-08-27T09:50:27.502Z,1011.29
2022-08-27T09:53:26.981Z,1011.26
2022-08-27T09:54:27.013Z,1011.27
2022-08-27T09:55:27.039Z,1011.27
2022-08-27T09:56:27.072Z,1011.26
2022-08-27T09:57:30.787Z,1011.26
2022-08-27T09:58:27.542Z,1011.26
2022-08-27T09:59:28.073Z,1011.24
2022-08-27T10:00:27.905Z,1011.26
2022-08-27T10:03:31.361Z,1011.31
2022-08-27T10:04:27.391Z,1011.32
2022-08-27T10:07:29.526Z,1011.33
2022-08-27T10:09:27.663Z,1011.35
2022-08-27T10:11:29.138Z,1011.34
2022-08-27T10:12:27.952Z,1011.30
2022-08-27T10:13:27.782Z,1011.35
2022-08-27T10:14:28.418Z,1011.34
2022-08-27T10:15:27.845Z,1011.33
2022-08-27T10:16:27.715Z,1011.33
2022-08-27T10:17:27.703Z,1011.34
2022-08-27T10:18:27.731Z,1011.29
2022-08-27T10:19:28.478Z,1011.25
2022-08-27T10:20:30.869Z,1011.23
2022-08-27T10:23:27.864Z,1011.26
2022-08-27T10:24:27.897Z,1011.28
2022-08-27T10:25:27.928Z,1011.28
2022-08-27T10:26:31.886Z,1011.27
2022-08-27T10:27:27.985Z,1011.25
2022-08-27T10:28:28.018Z,1011.30
2022-08-27T10:29:28.047Z,1011.28
2022-08-27T10:30:28.082Z,1011.28
2022-08-27T10:31:28.152Z,1011.22
2022-08-27T10:32:30.829Z,1011.24
2022-08-27T10:33:29.186Z,1011.26
2022-08-27T10:34:28.187Z,1011.24
2022-08-27T10:35:28.219Z,1011.27
2022-08-27T10:36:28.246Z,1011.25
2022-08-27T10:39:15.864Z,1011.23
2022-08-27T10:40:16.004Z,1011.26
2022-08-27T10:41:16.327Z,1011.24
2022-08-27T10:42:15.966Z,1011.21
2022-08-27T10:43:15.980Z,1011.24
2022-08-27T10:44:16.011Z,1011.24
2022-08-27T10:45:16.039Z,1011.22
2022-08-27T10:46:16.121Z,1011.21
2022-08-27T10:47:16.101Z,1011.26
2022-08-27T10:48:49.343Z,1011.24
2022-08-27T10:49:20.890Z,1011.22
2022-08-27T10:50:16.189Z,1011.26
2022-08-27T10:52:13.804Z,1011.23
2022-08-27T10:53:13.836Z,1011.20
2022-08-27T10:54:13.868Z,1011.19
2022-08-27T10:55:13.897Z,1011.21
2022-08-27T10:56:14.076Z,1011.22
2022-08-27T10:57:35.432Z,1011.21
2022-08-27T10:58:14.253Z,1011.20
2022-08-27T10:59:14.017Z,1011.22
2022-08-27T11:00:14.049Z,1011.17
2022-08-27T11:01:47.353Z,1011.19
2022-08-27T11:02:14.162Z,1011.20
2022-08-27T11:03:14.457Z,1011.23
2022-08-27T11:04:14.181Z,1011.23
2022-08-27T11:05:14.415Z,1011.22
2022-08-27T11:06:14.242Z,1011.25
2022-08-27T11:07:14.270Z,1011.26
2022-08-27T11:08:14.613Z,1011.21
2022-08-27T11:09:14.332Z,1011.25
2022-08-27T11:10:47.778Z,1011.24
2022-08-27T11:12:59.039Z,1011.22
2022-08-27T11:14:01.019Z,1011.20
2022-08-27T11:14:58.184Z,1011.26
2022-08-27T11:16:58.488Z,1011.27
2022-08-27T11:17:58.584Z,1011.17
2022-08-27T11:18:58.315Z,1011.19
2022-08-27T11:22:59.345Z,1011.17
2022-08-27T11:24:58.490Z,1011.20
2022-08-27T11:26:02.428Z,1011.24
2022-08-27T11:27:59.291Z,1011.20
2022-08-27T11:33:59.879Z,1011.10
2022-08-27T11:34:59.604Z,1011.13
2022-08-27T11:36:59.663Z,1011.12
2022-08-27T11:38:58.916Z,1011.12
2022-08-27T11:43:59.877Z,1011.20
2022-08-27T11:45:59.535Z,1011.16
2022-08-27T11:53:00.034Z,1011.17
2022-08-27T11:55:59.937Z,1011.13
2022-08-27T11:59:59.554Z,1011.14
2022-08-27T12:01:03.910Z,1011.17
2022-08-27T12:04:59.996Z,1011.10
2022-08-27T12:07:00.176Z,1011.14
2022-08-27T12:07:59.802Z,1011.09
2022-08-27T12:09:00.030Z,1011.09
2022-08-27T12:11:00.205Z,1011.07
2022-08-27T12:13:00.810Z,1011.07
2022-08-27T12:16:00.107Z,1011.06
2022-08-27T12:17:00.273Z,1011.12
2022-08-27T12:19:00.126Z,1011.07
2022-08-27T12:23:00.283Z,1011.09
2022-08-27T12:25:00.313Z,1011.04
2022-08-27T12:27:00.775Z,1011.14
2022-08-27T12:28:00.401Z,1011.12
2022-08-27T12:29:44.013Z,1011.08
2022-08-27T12:36:43.186Z,1011.14
2022-08-27T12:44:47.372Z,1011.13
2022-08-27T12:45:43.463Z,1011.12
2022-08-27T12:46:43.520Z,1011.13
2022-08-27T12:47:51.053Z,1011.08
2022-08-27T12:48:43.552Z,1011.03
2022-08-27T12:49:43.586Z,1011.04
2022-08-27T12:50:43.614Z,1010.94
2022-08-27T12:51:44.062Z,1011.00
2022-08-27T12:52:43.675Z,1011.00
2022-08-27T12:53:43.718Z,1011.02
2022-08-27T12:55:43.780Z,1011.00
2022-08-27T12:56:44.013Z,1011.00
2022-08-27T12:57:43.828Z,1010.99
2022-08-27T12:58:43.874Z,1011.00
2022-08-27T12:59:43.892Z,1010.96
2022-08-27T13:00:44.016Z,1010.98
2022-08-27T13:01:44.048Z,1010.99
2022-08-27T13:02:44.199Z,1010.97
2022-08-27T13:03:44.015Z,1010.95
2022-08-27T13:04:44.064Z,1010.92
2022-08-27T13:05:44.077Z,1010.91
2022-08-27T13:06:44.124Z,1010.93
2022-08-27T13:07:44.351Z,1010.93
2022-08-27T13:08:44.184Z,1010.96
2022-08-27T13:09:47.836Z,1010.92
2022-08-27T13:10:44.232Z,1010.92
2022-08-27T13:11:44.274Z,1010.89
2022-08-27T13:12:44.305Z,1010.93
2022-08-27T13:13:44.336Z,1010.90
2022-08-27T13:14:45.895Z,1010.86
2022-08-27T13:15:44.386Z,1010.83
2022-08-27T13:16:44.643Z,1010.89
2022-08-27T13:17:44.449Z,1010.80
2022-08-27T13:18:44.499Z,1010.79
2022-08-27T13:19:44.521Z,1010.85
2022-08-27T13:20:53.162Z,1010.83
2022-08-27T13:21:44.585Z,1010.88
2022-08-27T13:22:44.926Z,1010.81
2022-08-27T13:23:44.653Z,1010.74
2022-08-27T13:24:47.290Z,1010.82
2022-08-27T13:25:44.698Z,1010.78
2022-08-27T13:26:44.730Z,1010.79
2022-08-27T13:27:44.761Z,1010.84
2022-08-27T13:28:44.794Z,1010.78
2022-08-27T13:29:44.825Z,1010.80
2022-08-27T13:30:44.857Z,1010.79
2022-08-27T13:31:44.951Z,1010.78
2022-08-27T13:32:44.920Z,1010.73
2022-08-27T13:33:44.961Z,1010.73
2022-08-27T13:34:44.984Z,1010.70
2022-08-27T13:36:45.045Z,1010.77
2022-08-27T13:37:45.090Z,1010.75
2022-08-27T13:38:49.956Z,1010.75
2022-08-27T13:39:45.141Z,1010.75
2022-08-27T13:40:45.171Z,1010.73
2022-08-27T13:41:45.202Z,1010.72
2022-08-27T13:42:45.233Z,1010.74
2022-08-27T13:43:45.278Z,1010.72
2022-08-27T13:44:48.228Z,1010.68
2022-08-27T13:45:45.328Z,1010.72
2022-08-27T13:46:45.388Z,1010.69
2022-08-27T13:47:45.594Z,1010.70
2022-08-27T13:48:45.741Z,1010.71
2022-08-27T13:49:45.454Z,1010.69
2022-08-27T13:50:45.484Z,1010.73
2022-08-27T13:51:45.531Z,1010.68
2022-08-27T13:52:45.548Z,1010.68
2022-08-27T13:53:45.582Z,1010.68
2022-08-27T13:54:45.612Z,1010.66
2022-08-27T13:55:45.645Z,1010.66
2022-08-27T13:56:45.686Z,1010.63
2022-08-27T13:57:46.027Z,1010.67
2022-08-27T13:58:45.736Z,1010.66
2022-08-27T13:59:45.772Z,1010.64
2022-08-27T14:00:45.813Z,1010.64
2022-08-27T14:01:45.962Z,1010.60
2022-08-27T14:02:54.176Z,1010.68
2022-08-27T14:03:45.899Z,1010.61
2022-08-27T14:04:45.924Z,1010.60
2022-08-27T14:05:45.958Z,1010.63
2022-08-27T14:06:45.988Z,1010.59
2022-08-27T14:07:46.224Z,1010.64
2022-08-27T14:08:46.049Z,1010.57
2022-08-27T14:09:51.326Z,1010.59
2022-08-27T14:10:46.114Z,1010.62
2022-08-27T14:11:46.146Z,1010.58
2022-08-27T14:12:46.196Z,1010.59
2022-08-27T14:13:46.208Z,1010.61
2022-08-27T14:14:46.238Z,1010.59
2022-08-27T14:15:46.573Z,1010.64
2022-08-27T14:16:46.300Z,1010.59
2022-08-27T14:17:46.547Z,1010.59
2022-08-27T14:18:58.894Z,1010.64
2022-08-27T14:19:46.396Z,1010.67
2022-08-27T14:20:46.438Z,1010.65
2022-08-27T14:21:46.660Z,1010.65
2022-08-27T14:22:46.496Z,1010.63
2022-08-27T14:23:46.536Z,1010.62
2022-08-27T14:24:46.551Z,1010.63
2022-08-27T14:25:46.581Z,1010.66
2022-08-27T14:26:46.612Z,1010.64
2022-08-27T14:27:53.074Z,1010.67
2022-08-27T14:28:46.886Z,1010.70
2022-08-27T14:29:46.707Z,1010.63
2022-08-27T14:30:46.737Z,1010.66
2022-08-27T14:31:46.842Z,1010.63
2022-08-27T14:32:46.799Z,1010.66
2022-08-27T14:33:46.833Z,1010.59
2022-08-27T14:34:47.180Z,1010.63
2022-08-27T14:35:46.906Z,1010.61
2022-08-27T14:36:48.394Z,1010.65
2022-08-27T14:37:46.956Z,1010.60
2022-08-27T14:38:46.986Z,1010.62
2022-08-27T14:39:47.019Z,1010.63
2022-08-27T14:40:47.048Z,1010.65
2022-08-27T14:41:47.082Z,1010.63
2022-08-27T14:42:47.123Z,1010.62
2022-08-27T14:43:49.062Z,1010.63
2022-08-27T14:44:47.184Z,1010.63
2022-08-27T14:45:47.218Z,1010.59
2022-08-27T14:46:47.287Z,1010.57
2022-08-27T14:47:47.272Z,1010.55
2022-08-27T14:48:51.703Z,1010.56
2022-08-27T14:49:47.333Z,1010.58
2022-08-27T14:50:47.360Z,1010.52
2022-08-27T14:51:47.394Z,1010.56
2022-08-27T14:52:47.434Z,1010.55
2022-08-27T14:53:47.469Z,1010.57
2022-08-27T14:54:47.496Z,1010.56
2022-08-27T14:55:51.934Z,1010.54
2022-08-27T14:56:47.560Z,1010.56
2022-08-27T14:57:47.579Z,1010.54
2022-08-27T14:58:47.618Z,1010.55
2022-08-27T14:59:47.656Z,1010.60
2022-08-27T15:00:47.872Z,1010.62
2022-08-27T15:01:47.756Z,1010.64
2022-08-27T15:02:48.077Z,1010.59
2022-08-27T15:03:47.766Z,1010.59
2022-08-27T15:04:48.193Z,1010.55
2022-08-27T15:05:47.828Z,1010.55
2022-08-27T15:06:48.065Z,1010.58
2022-08-27T15:07:47.891Z,1010.54
2022-08-27T15:08:47.919Z,1010.54
2022-08-27T15:09:47.952Z,1010.54
2022-08-27T15:10:47.983Z,1010.52
2022-08-27T15:11:48.014Z,1010.55
2022-08-27T15:12:48.044Z,1010.58
2022-08-27T15:13:48.077Z,1010.56
2022-08-27T15:14:48.106Z,1010.56
2022-08-27T15:15:48.211Z,1010.59
2022-08-27T15:16:48.167Z,1010.60
2022-08-27T15:17:48.413Z,1010.55
2022-08-27T15:18:59.357Z,1010.57
2022-08-27T15:19:48.264Z,1010.53
2022-08-27T15:20:48.293Z,1010.50
2022-08-27T15:21:48.326Z,1010.52
2022-08-27T15:22:48.355Z,1010.52
2022-08-27T15:23:48.387Z,1010.53
2022-08-27T15:24:48.418Z,1010.51
2022-08-27T15:25:48.449Z,1010.51
2022-08-27T15:26:48.478Z,1010.53
2022-08-27T15:27:48.516Z,1010.54
2022-08-27T15:28:48.541Z,1010.52
2022-08-27T15:29:48.574Z,1010.50
2022-08-27T15:30:48.638Z,1010.54
2022-08-27T15:31:49.041Z,1010.57
2022-08-27T15:32:49.675Z,1010.58
2022-08-27T15:33:48.913Z,1010.57
2022-08-27T15:34:48.726Z,1010.56
2022-08-27T15:35:48.974Z,1010.56
2022-08-27T15:36:48.799Z,1010.57
2022-08-27T15:37:48.835Z,1010.62
2022-08-27T15:39:49.097Z,1010.54
2022-08-27T15:40:49.332Z,1010.50
2022-08-27T15:42:05.643Z,1010.52
2022-08-27T15:42:49.393Z,1010.54
2022-08-27T15:43:49.423Z,1010.54
2022-08-27T15:44:49.050Z,1010.52
2022-08-27T15:45:49.484Z,1010.55
2022-08-27T15:46:49.339Z,1010.54
2022-08-27T15:47:49.139Z,1010.56
2022-08-27T15:48:49.178Z,1010.57
2022-08-27T15:49:49.403Z,1010.56
2022-08-27T15:50:49.235Z,1010.58
2022-08-27T15:51:49.263Z,1010.60
2022-08-27T15:52:49.295Z,1010.57
2022-08-27T15:53:49.731Z,1010.59
2022-08-27T15:54:49.652Z,1010.55
2022-08-27T15:56:49.618Z,1010.57
2022-08-27T15:57:49.453Z,1010.56
2022-08-27T15:58:49.483Z,1010.57
2022-08-27T15:59:50.228Z,1010.60
2022-08-27T16:00:58.542Z,1010.58
2022-08-27T16:01:49.883Z,1010.60
2022-08-27T16:02:50.063Z,1010.57
2022-08-27T16:04:49.668Z,1010.58
2022-08-27T16:06:49.915Z,1010.58
2022-08-27T16:07:49.760Z,1010.57
2022-08-27T16:08:49.788Z,1010.56
2022-08-27T16:10:49.849Z,1010.57
2022-08-27T16:11:50.080Z,1010.56
2022-08-27T16:12:50.319Z,1010.60
2022-08-27T16:13:49.944Z,1010.54
2022-08-27T16:14:49.976Z,1010.58
2022-08-27T16:16:50.241Z,1010.55
2022-08-27T16:17:50.268Z,1010.57
2022-08-27T16:18:50.095Z,1010.56
2022-08-27T16:19:50.331Z,1010.58
2022-08-27T16:20:50.559Z,1010.57
2022-08-27T16:21:51.025Z,1010.61
2022-08-27T16:22:50.217Z,1010.52
2022-08-27T16:23:50.451Z,1010.54
2022-08-27T16:24:50.279Z,1010.53
2022-08-27T16:25:50.313Z,1010.50
2022-08-27T16:26:50.542Z,1010.45
2022-08-27T16:27:50.372Z,1010.51
2022-08-27T16:28:50.398Z,1010.54
2022-08-27T16:29:50.640Z,1010.53
2022-08-27T16:30:50.525Z,1010.51
2022-08-27T16:33:51.164Z,1010.57
2022-08-27T16:34:55.343Z,1010.57
2022-08-27T16:35:50.616Z,1010.57
2022-08-27T16:36:50.644Z,1010.58
2022-08-27T16:37:50.684Z,1010.52
2022-08-27T16:38:50.808Z,1010.55
2022-08-27T16:40:50.768Z,1010.53
2022-08-27T16:41:50.800Z,1010.56
2022-08-27T16:42:51.032Z,1010.53
2022-08-27T16:43:51.168Z,1010.52
2022-08-27T16:44:51.300Z,1010.53
2022-08-27T16:45:52.107Z,1010.51
2022-08-27T16:46:50.952Z,1010.48
2022-08-27T16:47:50.982Z,1010.45
2022-08-27T16:48:56.163Z,1010.47
2022-08-27T16:49:51.030Z,1010.44
2022-08-27T16:50:51.076Z,1010.41
2022-08-27T16:51:51.101Z,1010.45
2022-08-27T16:52:51.139Z,1010.41
2022-08-27T16:53:51.153Z,1010.42
2022-08-27T16:54:51.185Z,1010.41
2022-08-27T16:55:51.227Z,1010.42
2022-08-27T16:56:51.256Z,1010.38
2022-08-27T16:57:51.275Z,1010.38
2022-08-27T16:58:51.522Z,1010.38
2022-08-27T16:59:51.346Z,1010.41
2022-08-27T17:00:51.367Z,1010.37
2022-08-27T17:01:51.504Z,1010.37
2022-08-27T17:04:08.063Z,1010.38
2022-08-27T17:04:58.522Z,1010.35
2022-08-27T17:05:51.519Z,1010.41
2022-08-27T17:06:51.576Z,1010.41
2022-08-27T17:07:51.579Z,1010.39
2022-08-27T17:08:51.625Z,1010.41
2022-08-27T17:09:51.959Z,1010.41
2022-08-27T17:10:51.674Z,1010.40
2022-08-27T17:11:51.702Z,1010.39
2022-08-27T17:12:51.732Z,1010.45
2022-08-27T17:13:51.762Z,1010.44
2022-08-27T17:14:52.010Z,1010.42
2022-08-27T17:15:52.841Z,1010.45
2022-08-27T17:16:51.854Z,1010.44
2022-08-27T17:17:51.895Z,1010.43
2022-08-27T17:18:52.237Z,1010.43
2022-08-27T17:19:52.056Z,1010.40
2022-08-27T17:20:51.990Z,1010.45
2022-08-27T17:21:52.017Z,1010.45
2022-08-27T17:22:52.040Z,1010.40
2022-08-27T17:23:52.281Z,1010.44
2022-08-27T17:24:52.115Z,1010.42
2022-08-27T17:25:52.129Z,1010.39
2022-08-27T17:26:52.160Z,1010.37
2022-08-27T17:28:52.228Z,1010.45
2022-08-27T17:29:52.481Z,1010.48
2022-08-27T17:30:52.577Z,1010.48
2022-08-27T17:31:52.311Z,1010.50
2022-08-27T17:33:52.369Z,1010.50
2022-08-27T17:34:52.400Z,1010.50
2022-08-27T17:35:52.429Z,1010.51
2022-08-27T17:36:52.475Z,1010.51
2022-08-27T17:37:52.702Z,1010.54
2022-08-27T17:38:52.535Z,1010.54
2022-08-27T17:39:52.739Z,1010.53
2022-08-27T17:41:52.612Z,1010.47
2022-08-27T17:42:52.641Z,1010.51
2022-08-27T17:43:52.687Z,1010.54
2022-08-27T17:45:52.987Z,1010.53
2022-08-27T17:46:52.763Z,1010.50
2022-08-27T17:47:52.802Z,1010.52
2022-08-27T17:48:52.839Z,1010.54
2022-08-27T17:49:53.170Z,1010.55
2022-08-27T17:52:53.146Z,1010.56
2022-08-27T17:53:57.205Z,1010.56
2022-08-27T17:54:53.221Z,1010.59
2022-08-27T17:55:53.238Z,1010.60
2022-08-27T17:56:53.076Z,1010.64
2022-08-27T17:57:53.094Z,1010.66
2022-08-27T17:58:53.125Z,1010.63
2022-08-27T17:59:53.155Z,1010.69
2022-08-27T18:01:35.869Z,1010.70
2022-08-27T18:02:35.767Z,1010.69
2022-08-27T18:03:47.517Z,1010.73
2022-08-27T18:04:35.881Z,1010.69
2022-08-27T18:05:35.855Z,1010.75
2022-08-27T18:06:35.888Z,1010.74
2022-08-27T18:07:39.828Z,1010.72
2022-08-27T18:08:35.950Z,1010.75
2022-08-27T18:09:35.975Z,1010.71
2022-08-27T18:10:36.009Z,1010.74
2022-08-27T18:11:36.036Z,1010.77
2022-08-27T18:12:36.066Z,1010.72
2022-08-27T18:13:36.097Z,1010.73
2022-08-27T18:14:36.128Z,1010.73
2022-08-27T18:15:36.159Z,1010.74
2022-08-27T18:16:36.262Z,1010.76
2022-08-27T18:17:36.218Z,1010.69
2022-08-27T18:18:36.261Z,1010.68
2022-08-27T18:24:10.543Z,1010.70
2022-08-27T18:25:10.574Z,1010.72
2022-08-27T18:26:10.603Z,1010.69
2022-08-27T18:27:10.636Z,1010.73
2022-08-27T18:28:10.833Z,1010.70
2022-08-27T18:47:06.536Z,1010.86
2022-08-27T18:48:06.545Z,1010.86
2022-08-27T18:49:06.574Z,1010.85
2022-08-27T18:50:06.632Z,1010.89
2022-08-27T18:51:06.638Z,1010.87
2022-08-27T18:52:06.671Z,1010.87
2022-08-27T18:53:06.693Z,1010.91
2022-08-27T18:54:06.726Z,1010.88
2022-08-27T18:55:06.765Z,1010.87
2022-08-27T18:56:06.784Z,1010.88
2022-08-27T18:57:06.813Z,1010.89
2022-08-27T18:58:06.855Z,1010.86
2022-08-27T18:59:06.916Z,1010.91
2022-08-27T19:00:06.917Z,1010.87
2022-08-27T19:02:07.088Z,1010.91
2022-08-27T19:03:06.992Z,1010.87
2022-08-27T19:04:07.021Z,1010.87
2022-08-27T19:05:07.055Z,1010.87
2022-08-27T19:06:09.064Z,1010.86
2022-08-27T19:07:07.111Z,1010.89
2022-08-27T19:08:07.154Z,1010.87
2022-08-27T19:09:07.175Z,1010.87
2022-08-27T19:10:07.896Z,1010.90
2022-08-27T19:11:07.238Z,1010.90
2022-08-27T19:12:07.262Z,1010.92
2022-08-27T19:13:07.295Z,1010.89
2022-08-27T19:14:07.320Z,1010.91
2022-08-27T19:15:07.353Z,1010.97
2022-08-27T19:16:07.434Z,1010.93
2022-08-27T19:17:07.413Z,1010.96
2022-08-27T19:18:07.468Z,1010.93